sensor_id;sensor_type;location;lat;lon;timestamp;temperature;humidity
67641;SHT31;54434;50.096;20.082;2023-05-29T00:01:41;10.43;74.88
67641;SHT31;54434;50.096;20.082;2023-05-29T00:04:17;10.41;74.93
67641;SHT31;54434;50.096;20.082;2023-05-29T00:06:54;10.39;74.98
67641;SHT31;54434;50.096;20.082;2023-05-29T00:09:31;10.37;75.00
67641;SHT31;54434;50.096;20.082;2023-05-29T00:12:08;10.34;75.05
67641;SHT31;54434;50.096;20.082;2023-05-29T00:14:45;10.32;75.20
67641;SHT31;54434;50.096;20.082;2023-05-29T00:17:22;10.29;75.40
67641;SHT31;54434;50.096;20.082;2023-05-29T00:19:59;10.27;75.47
67641;SHT31;54434;50.096;20.082;2023-05-29T00:22:40;10.23;75.48
67641;SHT31;54434;50.096;20.082;2023-05-29T00:25:17;10.19;75.53
67641;SHT31;54434;50.096;20.082;2023-05-29T00:27:54;10.17;75.50
67641;SHT31;54434;50.096;20.082;2023-05-29T00:30:30;10.14;75.51
67641;SHT31;54434;50.096;20.082;2023-05-29T00:33:07;10.11;75.62
67641;SHT31;54434;50.096;20.082;2023-05-29T00:35:43;10.09;75.59
67641;SHT31;54434;50.096;20.082;2023-05-29T00:38:20;10.06;75.62
67641;SHT31;54434;50.096;20.082;2023-05-29T00:40:57;10.03;75.77
67641;SHT31;54434;50.096;20.082;2023-05-29T00:43:34;10.00;76.05
67641;SHT31;54434;50.096;20.082;2023-05-29T00:46:11;9.97;76.04
67641;SHT31;54434;50.096;20.082;2023-05-29T00:48:51;9.96;75.92
67641;SHT31;54434;50.096;20.082;2023-05-29T00:51:28;9.94;75.80
67641;SHT31;54434;50.096;20.082;2023-05-29T00:54:06;9.93;75.89
67641;SHT31;54434;50.096;20.082;2023-05-29T00:56:47;9.92;76.04
67641;SHT31;54434;50.096;20.082;2023-05-29T00:59:24;9.90;76.06
67641;SHT31;54434;50.096;20.082;2023-05-29T01:02:05;9.90;75.93
67641;SHT31;54434;50.096;20.082;2023-05-29T01:04:43;9.89;75.92
67641;SHT31;54434;50.096;20.082;2023-05-29T01:07:21;9.88;75.98
67641;SHT31;54434;50.096;20.082;2023-05-29T01:09:58;9.85;75.98
67641;SHT31;54434;50.096;20.082;2023-05-29T01:12:40;9.84;76.03
67641;SHT31;54434;50.096;20.082;2023-05-29T01:15:28;9.82;76.06
67641;SHT31;54434;50.096;20.082;2023-05-29T01:18:22;9.78;76.03
67641;SHT31;54434;50.096;20.082;2023-05-29T01:21:14;9.77;75.92
67641;SHT31;54434;50.096;20.082;2023-05-29T01:24:09;9.76;76.02
67641;SHT31;54434;50.096;20.082;2023-05-29T01:27:05;9.71;76.01
67641;SHT31;54434;50.096;20.082;2023-05-29T01:29:44;9.68;76.03
67641;SHT31;54434;50.096;20.082;2023-05-29T01:32:24;9.66;76.02
67641;SHT31;54434;50.096;20.082;2023-05-29T01:35:02;9.64;76.08
67641;SHT31;54434;50.096;20.082;2023-05-29T01:37:41;9.63;76.19
67641;SHT31;54434;50.096;20.082;2023-05-29T01:40:17;9.61;76.33
67641;SHT31;54434;50.096;20.082;2023-05-29T01:42:56;9.58;76.48
67641;SHT31;54434;50.096;20.082;2023-05-29T01:45:33;9.53;76.58
67641;SHT31;54434;50.096;20.082;2023-05-29T01:48:10;9.51;76.54
67641;SHT31;54434;50.096;20.082;2023-05-29T01:50:48;9.48;76.45
67641;SHT31;54434;50.096;20.082;2023-05-29T01:53:25;9.44;76.49
67641;SHT31;54434;50.096;20.082;2023-05-29T01:56:02;9.43;76.57
67641;SHT31;54434;50.096;20.082;2023-05-29T01:58:40;9.41;76.65
67641;SHT31;54434;50.096;20.082;2023-05-29T02:01:18;9.39;76.68
67641;SHT31;54434;50.096;20.082;2023-05-29T02:03:55;9.35;76.71
67641;SHT31;54434;50.096;20.082;2023-05-29T02:06:32;9.33;76.75
67641;SHT31;54434;50.096;20.082;2023-05-29T02:09:09;9.30;76.84
67641;SHT31;54434;50.096;20.082;2023-05-29T02:11:45;9.26;76.80
67641;SHT31;54434;50.096;20.082;2023-05-29T02:14:22;9.24;76.83
67641;SHT31;54434;50.096;20.082;2023-05-29T02:16:58;9.20;76.86
67641;SHT31;54434;50.096;20.082;2023-05-29T02:19:36;9.16;76.96
67641;SHT31;54434;50.096;20.082;2023-05-29T02:22:13;9.14;77.01
67641;SHT31;54434;50.096;20.082;2023-05-29T02:24:51;9.12;77.07
67641;SHT31;54434;50.096;20.082;2023-05-29T02:27:27;9.10;77.08
67641;SHT31;54434;50.096;20.082;2023-05-29T02:30:05;9.09;77.05
67641;SHT31;54434;50.096;20.082;2023-05-29T02:32:45;9.07;77.08
67641;SHT31;54434;50.096;20.082;2023-05-29T02:35:22;9.05;77.07
67641;SHT31;54434;50.096;20.082;2023-05-29T02:37:58;9.03;77.08
67641;SHT31;54434;50.096;20.082;2023-05-29T02:40:34;9.02;77.17
67641;SHT31;54434;50.096;20.082;2023-05-29T02:43:13;9.01;77.22
67641;SHT31;54434;50.096;20.082;2023-05-29T02:45:50;9.02;77.33
67641;SHT31;54434;50.096;20.082;2023-05-29T02:48:27;9.02;77.40
67641;SHT31;54434;50.096;20.082;2023-05-29T02:51:04;9.03;77.36
67641;SHT31;54434;50.096;20.082;2023-05-29T02:53:40;9.04;77.30
67641;SHT31;54434;50.096;20.082;2023-05-29T02:56:17;9.06;77.50
67641;SHT31;54434;50.096;20.082;2023-05-29T02:58:55;9.06;77.60
67641;SHT31;54434;50.096;20.082;2023-05-29T03:01:33;9.08;77.59
67641;SHT31;54434;50.096;20.082;2023-05-29T03:04:10;9.12;77.59
67641;SHT31;54434;50.096;20.082;2023-05-29T03:06:49;9.15;77.50
67641;SHT31;54434;50.096;20.082;2023-05-29T03:09:26;9.18;77.43
67641;SHT31;54434;50.096;20.082;2023-05-29T03:12:03;9.23;77.36
67641;SHT31;54434;50.096;20.082;2023-05-29T03:14:40;9.30;77.39
67641;SHT31;54434;50.096;20.082;2023-05-29T03:17:17;9.37;77.40
67641;SHT31;54434;50.096;20.082;2023-05-29T03:19:53;9.44;77.41
67641;SHT31;54434;50.096;20.082;2023-05-29T03:22:30;9.52;77.41
67641;SHT31;54434;50.096;20.082;2023-05-29T03:25:08;9.60;77.27
67641;SHT31;54434;50.096;20.082;2023-05-29T03:27:46;9.68;77.18
67641;SHT31;54434;50.096;20.082;2023-05-29T03:30:24;9.80;76.98
67641;SHT31;54434;50.096;20.082;2023-05-29T03:33:00;9.96;76.77
67641;SHT31;54434;50.096;20.082;2023-05-29T03:35:57;10.14;76.77
67641;SHT31;54434;50.096;20.082;2023-05-29T03:38:34;10.34;76.90
67641;SHT31;54434;50.096;20.082;2023-05-29T03:41:10;10.55;76.88
67641;SHT31;54434;50.096;20.082;2023-05-29T03:43:47;10.78;76.84
67641;SHT31;54434;50.096;20.082;2023-05-29T03:46:24;10.97;76.95
67641;SHT31;54434;50.096;20.082;2023-05-29T03:49:01;11.14;76.38
67641;SHT31;54434;50.096;20.082;2023-05-29T03:51:39;11.31;76.21
67641;SHT31;54434;50.096;20.082;2023-05-29T03:54:16;11.47;76.02
67641;SHT31;54434;50.096;20.082;2023-05-29T03:56:52;11.64;75.77
67641;SHT31;54434;50.096;20.082;2023-05-29T03:59:29;11.84;75.23
67641;SHT31;54434;50.096;20.082;2023-05-29T04:02:06;12.08;75.04
67641;SHT31;54434;50.096;20.082;2023-05-29T04:04:45;12.32;74.78
67641;SHT31;54434;50.096;20.082;2023-05-29T04:07:22;12.58;74.33
67641;SHT31;54434;50.096;20.082;2023-05-29T04:09:58;12.88;73.46
67641;SHT31;54434;50.096;20.082;2023-05-29T04:12:35;13.18;72.80
67641;SHT31;54434;50.096;20.082;2023-05-29T04:15:13;13.54;72.26
67641;SHT31;54434;50.096;20.082;2023-05-29T04:17:49;13.90;70.97
67641;SHT31;54434;50.096;20.082;2023-05-29T04:20:26;14.27;69.45
67641;SHT31;54434;50.096;20.082;2023-05-29T04:23:03;14.65;68.57
67641;SHT31;54434;50.096;20.082;2023-05-29T04:25:39;15.03;67.35
67641;SHT31;54434;50.096;20.082;2023-05-29T04:28:17;15.41;66.29
67641;SHT31;54434;50.096;20.082;2023-05-29T04:30:53;15.72;65.01
67641;SHT31;54434;50.096;20.082;2023-05-29T04:33:30;16.02;64.24
67641;SHT31;54434;50.096;20.082;2023-05-29T04:36:09;16.34;62.82
67641;SHT31;54434;50.096;20.082;2023-05-29T04:38:46;16.64;62.62
67641;SHT31;54434;50.096;20.082;2023-05-29T04:41:24;17.00;60.87
67641;SHT31;54434;50.096;20.082;2023-05-29T04:44:03;17.19;60.22
67641;SHT31;54434;50.096;20.082;2023-05-29T04:46:47;17.54;59.88
67641;SHT31;54434;50.096;20.082;2023-05-29T04:49:26;17.84;58.71
67641;SHT31;54434;50.096;20.082;2023-05-29T04:52:04;18.23;58.54
67641;SHT31;54434;50.096;20.082;2023-05-29T04:54:41;18.64;57.75
67641;SHT31;54434;50.096;20.082;2023-05-29T04:57:19;19.01;55.78
67641;SHT31;54434;50.096;20.082;2023-05-29T04:59:55;19.37;55.35
67641;SHT31;54434;50.096;20.082;2023-05-29T05:02:32;19.70;54.87
67641;SHT31;54434;50.096;20.082;2023-05-29T05:05:10;20.09;53.82
67641;SHT31;54434;50.096;20.082;2023-05-29T05:07:47;20.40;52.37
67641;SHT31;54434;50.096;20.082;2023-05-29T05:10:24;20.74;51.75
67641;SHT31;54434;50.096;20.082;2023-05-29T05:13:01;21.03;50.27
67641;SHT31;54434;50.096;20.082;2023-05-29T05:15:40;21.32;49.27
67641;SHT31;54434;50.096;20.082;2023-05-29T05:18:17;21.64;48.24
67641;SHT31;54434;50.096;20.082;2023-05-29T05:21:27;21.83;46.50
67641;SHT31;54434;50.096;20.082;2023-05-29T05:24:06;21.97;46.14
67641;SHT31;54434;50.096;20.082;2023-05-29T05:26:44;22.14;45.36
67641;SHT31;54434;50.096;20.082;2023-05-29T05:29:20;22.26;44.34
67641;SHT31;54434;50.096;20.082;2023-05-29T05:31:59;22.20;44.00
67641;SHT31;54434;50.096;20.082;2023-05-29T05:34:36;22.29;44.60
67641;SHT31;54434;50.096;20.082;2023-05-29T05:37:13;22.42;44.67
67641;SHT31;54434;50.096;20.082;2023-05-29T05:39:50;22.58;43.62
67641;SHT31;54434;50.096;20.082;2023-05-29T05:42:26;22.65;43.97
67641;SHT31;54434;50.096;20.082;2023-05-29T05:45:09;22.89;43.47
67641;SHT31;54434;50.096;20.082;2023-05-29T05:47:46;22.99;43.23
67641;SHT31;54434;50.096;20.082;2023-05-29T05:50:23;23.13;43.14
67641;SHT31;54434;50.096;20.082;2023-05-29T05:53:00;23.20;42.34
67641;SHT31;54434;50.096;20.082;2023-05-29T05:55:37;23.09;41.93
67641;SHT31;54434;50.096;20.082;2023-05-29T05:58:15;23.08;42.36
67641;SHT31;54434;50.096;20.082;2023-05-29T06:00:52;23.23;41.79
67641;SHT31;54434;50.096;20.082;2023-05-29T06:03:30;23.41;41.50
67641;SHT31;54434;50.096;20.082;2023-05-29T06:06:10;23.56;41.92
67641;SHT31;54434;50.096;20.082;2023-05-29T06:08:47;23.65;42.78
67641;SHT31;54434;50.096;20.082;2023-05-29T06:11:24;23.87;42.29
67641;SHT31;54434;50.096;20.082;2023-05-29T06:14:01;23.84;41.72
67641;SHT31;54434;50.096;20.082;2023-05-29T06:16:38;23.73;41.65
67641;SHT31;54434;50.096;20.082;2023-05-29T06:19:15;23.57;41.82
67641;SHT31;54434;50.096;20.082;2023-05-29T06:21:57;23.45;41.75
67641;SHT31;54434;50.096;20.082;2023-05-29T06:24:35;23.50;41.78
67641;SHT31;54434;50.096;20.082;2023-05-29T06:27:12;23.51;41.68
67641;SHT31;54434;50.096;20.082;2023-05-29T06:29:49;23.50;41.91
67641;SHT31;54434;50.096;20.082;2023-05-29T06:32:26;23.71;42.08
67641;SHT31;54434;50.096;20.082;2023-05-29T06:35:04;23.80;41.79
67641;SHT31;54434;50.096;20.082;2023-05-29T06:37:45;23.92;41.89
67641;SHT31;54434;50.096;20.082;2023-05-29T06:40:22;23.78;41.55
67641;SHT31;54434;50.096;20.082;2023-05-29T06:43:02;23.77;40.43
67641;SHT31;54434;50.096;20.082;2023-05-29T06:45:41;23.54;40.55
67641;SHT31;54434;50.096;20.082;2023-05-29T06:48:18;23.53;40.54
67641;SHT31;54434;50.096;20.082;2023-05-29T06:50:54;23.60;40.55
67641;SHT31;54434;50.096;20.082;2023-05-29T06:53:49;23.34;41.16
67641;SHT31;54434;50.096;20.082;2023-05-29T06:56:26;23.36;41.65
67641;SHT31;54434;50.096;20.082;2023-05-29T06:59:03;23.30;41.70
67641;SHT31;54434;50.096;20.082;2023-05-29T07:01:40;23.41;42.03
67641;SHT31;54434;50.096;20.082;2023-05-29T07:07:45;23.51;40.92
67641;SHT31;54434;50.096;20.082;2023-05-29T07:10:22;23.36;41.65
67641;SHT31;54434;50.096;20.082;2023-05-29T07:12:59;23.59;41.62
67641;SHT31;54434;50.096;20.082;2023-05-29T07:15:38;23.74;41.35
67641;SHT31;54434;50.096;20.082;2023-05-29T07:18:15;23.87;40.78
67641;SHT31;54434;50.096;20.082;2023-05-29T07:20:52;23.93;41.01
67641;SHT31;54434;50.096;20.082;2023-05-29T07:23:33;24.09;41.66
67641;SHT31;54434;50.096;20.082;2023-05-29T07:26:10;24.28;41.66
67641;SHT31;54434;50.096;20.082;2023-05-29T07:28:47;24.41;41.45
67641;SHT31;54434;50.096;20.082;2023-05-29T07:31:24;24.37;40.88
67641;SHT31;54434;50.096;20.082;2023-05-29T07:34:01;24.33;41.01
67641;SHT31;54434;50.096;20.082;2023-05-29T07:36:44;24.56;41.73
67641;SHT31;54434;50.096;20.082;2023-05-29T07:39:34;24.63;40.84
67641;SHT31;54434;50.096;20.082;2023-05-29T07:42:37;24.77;40.30
67641;SHT31;54434;50.096;20.082;2023-05-29T07:45:13;24.78;39.95
67641;SHT31;54434;50.096;20.082;2023-05-29T07:47:50;24.79;40.61
67641;SHT31;54434;50.096;20.082;2023-05-29T07:50:27;25.09;39.95
67641;SHT31;54434;50.096;20.082;2023-05-29T07:53:03;25.14;40.08
67641;SHT31;54434;50.096;20.082;2023-05-29T07:55:41;25.13;40.11
67641;SHT31;54434;50.096;20.082;2023-05-29T07:58:18;25.25;40.20
67641;SHT31;54434;50.096;20.082;2023-05-29T08:00:55;25.36;40.33
67641;SHT31;54434;50.096;20.082;2023-05-29T08:03:32;25.38;39.65
67641;SHT31;54434;50.096;20.082;2023-05-29T08:06:28;25.70;39.59
67641;SHT31;54434;50.096;20.082;2023-05-29T08:09:06;25.61;38.17
67641;SHT31;54434;50.096;20.082;2023-05-29T08:11:43;25.50;37.77
67641;SHT31;54434;50.096;20.082;2023-05-29T08:14:19;25.59;37.67
67641;SHT31;54434;50.096;20.082;2023-05-29T08:16:57;25.71;38.23
67641;SHT31;54434;50.096;20.082;2023-05-29T08:19:34;25.74;37.70
67641;SHT31;54434;50.096;20.082;2023-05-29T08:22:14;25.73;38.22
67641;SHT31;54434;50.096;20.082;2023-05-29T08:24:50;25.69;38.44
67641;SHT31;54434;50.096;20.082;2023-05-29T08:27:27;25.68;38.63
67641;SHT31;54434;50.096;20.082;2023-05-29T08:30:04;25.55;39.10
67641;SHT31;54434;50.096;20.082;2023-05-29T08:32:43;25.33;38.45
67641;SHT31;54434;50.096;20.082;2023-05-29T08:35:22;25.27;38.68
67641;SHT31;54434;50.096;20.082;2023-05-29T08:37:58;25.23;39.25
67641;SHT31;54434;50.096;20.082;2023-05-29T08:40:36;25.13;39.30
67641;SHT31;54434;50.096;20.082;2023-05-29T08:43:14;24.92;39.83
67641;SHT31;54434;50.096;20.082;2023-05-29T08:45:56;24.92;38.93
67641;SHT31;54434;50.096;20.082;2023-05-29T08:48:37;24.72;37.78
67641;SHT31;54434;50.096;20.082;2023-05-29T08:51:22;24.59;38.59
67641;SHT31;54434;50.096;20.082;2023-05-29T08:54:04;24.46;39.34
67641;SHT31;54434;50.096;20.082;2023-05-29T08:56:42;24.56;40.23
67641;SHT31;54434;50.096;20.082;2023-05-29T08:59:19;24.46;40.10
67641;SHT31;54434;50.096;20.082;2023-05-29T09:01:59;24.37;40.18
67641;SHT31;54434;50.096;20.082;2023-05-29T09:04:38;24.36;40.34
67641;SHT31;54434;50.096;20.082;2023-05-29T09:07:20;24.32;39.79
67641;SHT31;54434;50.096;20.082;2023-05-29T09:09:58;24.24;39.76
67641;SHT31;54434;50.096;20.082;2023-05-29T09:12:36;24.19;40.26
67641;SHT31;54434;50.096;20.082;2023-05-29T09:15:21;24.18;40.64
67641;SHT31;54434;50.096;20.082;2023-05-29T09:17:58;24.23;40.94
67641;SHT31;54434;50.096;20.082;2023-05-29T09:20:36;24.29;40.80
67641;SHT31;54434;50.096;20.082;2023-05-29T09:23:12;24.30;40.30
67641;SHT31;54434;50.096;20.082;2023-05-29T09:25:54;24.39;40.19
67641;SHT31;54434;50.096;20.082;2023-05-29T09:28:35;24.47;40.23
67641;SHT31;54434;50.096;20.082;2023-05-29T09:31:16;24.38;39.94
67641;SHT31;54434;50.096;20.082;2023-05-29T09:33:53;24.38;40.67
67641;SHT31;54434;50.096;20.082;2023-05-29T09:36:33;24.40;39.40
67641;SHT31;54434;50.096;20.082;2023-05-29T09:39:11;24.24;39.35
67641;SHT31;54434;50.096;20.082;2023-05-29T09:41:53;24.29;39.93
67641;SHT31;54434;50.096;20.082;2023-05-29T09:44:30;24.32;39.60
67641;SHT31;54434;50.096;20.082;2023-05-29T09:47:22;24.23;39.25
67641;SHT31;54434;50.096;20.082;2023-05-29T09:50:07;24.22;39.23
67641;SHT31;54434;50.096;20.082;2023-05-29T09:52:58;24.12;38.90
67641;SHT31;54434;50.096;20.082;2023-05-29T09:55:35;24.05;38.95
67641;SHT31;54434;50.096;20.082;2023-05-29T09:58:13;24.03;38.98
67641;SHT31;54434;50.096;20.082;2023-05-29T10:00:50;24.15;38.89
67641;SHT31;54434;50.096;20.082;2023-05-29T10:03:30;24.09;37.54
67641;SHT31;54434;50.096;20.082;2023-05-29T10:06:07;24.03;37.49
67641;SHT31;54434;50.096;20.082;2023-05-29T10:08:49;23.98;37.43
67641;SHT31;54434;50.096;20.082;2023-05-29T10:11:27;23.90;37.52
67641;SHT31;54434;50.096;20.082;2023-05-29T10:14:06;23.94;38.29
67641;SHT31;54434;50.096;20.082;2023-05-29T10:16:48;23.96;37.90
67641;SHT31;54434;50.096;20.082;2023-05-29T10:19:30;24.06;38.76
67641;SHT31;54434;50.096;20.082;2023-05-29T10:22:09;23.99;37.76
67641;SHT31;54434;50.096;20.082;2023-05-29T10:24:48;24.00;37.96
67641;SHT31;54434;50.096;20.082;2023-05-29T10:27:29;24.13;38.69
67641;SHT31;54434;50.096;20.082;2023-05-29T10:30:10;24.25;38.41
67641;SHT31;54434;50.096;20.082;2023-05-29T10:33:08;24.35;38.22
67641;SHT31;54434;50.096;20.082;2023-05-29T10:36:07;24.42;37.92
67641;SHT31;54434;50.096;20.082;2023-05-29T10:38:49;24.42;37.22
67641;SHT31;54434;50.096;20.082;2023-05-29T10:41:35;24.44;37.25
67641;SHT31;54434;50.096;20.082;2023-05-29T10:44:40;24.52;37.48
67641;SHT31;54434;50.096;20.082;2023-05-29T10:47:23;24.58;37.15
67641;SHT31;54434;50.096;20.082;2023-05-29T10:50:02;24.60;36.40
67641;SHT31;54434;50.096;20.082;2023-05-29T10:52:44;24.61;37.28
67641;SHT31;54434;50.096;20.082;2023-05-29T10:55:22;24.68;36.09
67641;SHT31;54434;50.096;20.082;2023-05-29T10:58:12;24.68;35.79
67641;SHT31;54434;50.096;20.082;2023-05-29T11:00:53;24.56;35.71
67641;SHT31;54434;50.096;20.082;2023-05-29T11:03:32;24.62;36.01
67641;SHT31;54434;50.096;20.082;2023-05-29T11:06:19;24.66;36.14
67641;SHT31;54434;50.096;20.082;2023-05-29T11:08:57;24.59;36.34
67641;SHT31;54434;50.096;20.082;2023-05-29T11:11:39;24.55;36.01
67641;SHT31;54434;50.096;20.082;2023-05-29T11:14:17;24.52;36.81
67641;SHT31;54434;50.096;20.082;2023-05-29T11:16:55;24.61;36.72
67641;SHT31;54434;50.096;20.082;2023-05-29T11:19:33;24.62;36.90
67641;SHT31;54434;50.096;20.082;2023-05-29T11:22:16;24.60;36.10
67641;SHT31;54434;50.096;20.082;2023-05-29T11:25:08;24.42;36.19
67641;SHT31;54434;50.096;20.082;2023-05-29T11:27:46;24.38;36.82
67641;SHT31;54434;50.096;20.082;2023-05-29T11:30:25;24.34;36.73
67641;SHT31;54434;50.096;20.082;2023-05-29T11:33:02;24.37;36.20
67641;SHT31;54434;50.096;20.082;2023-05-29T11:35:42;24.30;36.07
67641;SHT31;54434;50.096;20.082;2023-05-29T11:38:23;24.30;36.63
67641;SHT31;54434;50.096;20.082;2023-05-29T11:41:02;24.31;35.95
67641;SHT31;54434;50.096;20.082;2023-05-29T11:43:38;24.27;35.99
67641;SHT31;54434;50.096;20.082;2023-05-29T11:46:19;24.26;35.98
67641;SHT31;54434;50.096;20.082;2023-05-29T11:48:58;24.22;36.22
67641;SHT31;54434;50.096;20.082;2023-05-29T11:51:35;24.16;36.47
67641;SHT31;54434;50.096;20.082;2023-05-29T11:54:16;24.02;36.77
67641;SHT31;54434;50.096;20.082;2023-05-29T11:56:55;24.02;36.62
67641;SHT31;54434;50.096;20.082;2023-05-29T11:59:32;23.97;36.55
67641;SHT31;54434;50.096;20.082;2023-05-29T12:02:10;24.00;35.88
67641;SHT31;54434;50.096;20.082;2023-05-29T12:05:00;24.09;36.75
67641;SHT31;54434;50.096;20.082;2023-05-29T12:07:46;24.13;37.19
67641;SHT31;54434;50.096;20.082;2023-05-29T12:10:24;24.18;37.13
67641;SHT31;54434;50.096;20.082;2023-05-29T12:13:01;24.24;37.38
67641;SHT31;54434;50.096;20.082;2023-05-29T12:15:38;24.14;37.11
67641;SHT31;54434;50.096;20.082;2023-05-29T12:18:15;24.08;37.12
67641;SHT31;54434;50.096;20.082;2023-05-29T12:20:57;24.06;37.69
67641;SHT31;54434;50.096;20.082;2023-05-29T12:23:37;24.15;37.63
67641;SHT31;54434;50.096;20.082;2023-05-29T12:26:13;24.14;36.68
67641;SHT31;54434;50.096;20.082;2023-05-29T12:28:53;24.11;36.74
67641;SHT31;54434;50.096;20.082;2023-05-29T12:31:31;24.11;36.95
67641;SHT31;54434;50.096;20.082;2023-05-29T12:34:10;24.16;37.36
67641;SHT31;54434;50.096;20.082;2023-05-29T12:36:49;24.17;37.10
67641;SHT31;54434;50.096;20.082;2023-05-29T12:39:25;24.13;36.59
67641;SHT31;54434;50.096;20.082;2023-05-29T12:42:02;24.11;35.82
67641;SHT31;54434;50.096;20.082;2023-05-29T12:44:41;24.08;36.20
67641;SHT31;54434;50.096;20.082;2023-05-29T12:47:22;24.09;36.13
67641;SHT31;54434;50.096;20.082;2023-05-29T12:49:59;24.10;36.55
67641;SHT31;54434;50.096;20.082;2023-05-29T12:52:37;24.11;35.99
67641;SHT31;54434;50.096;20.082;2023-05-29T12:55:16;24.11;36.29
67641;SHT31;54434;50.096;20.082;2023-05-29T12:57:53;24.09;35.47
67641;SHT31;54434;50.096;20.082;2023-05-29T13:00:30;24.03;35.33
67641;SHT31;54434;50.096;20.082;2023-05-29T13:03:09;24.08;36.10
67641;SHT31;54434;50.096;20.082;2023-05-29T13:05:47;23.99;36.01
67641;SHT31;54434;50.096;20.082;2023-05-29T13:08:26;23.92;35.44
67641;SHT31;54434;50.096;20.082;2023-05-29T13:11:03;23.87;35.50
67641;SHT31;54434;50.096;20.082;2023-05-29T13:13:39;23.77;35.59
67641;SHT31;54434;50.096;20.082;2023-05-29T13:16:16;23.77;36.41
67641;SHT31;54434;50.096;20.082;2023-05-29T13:18:53;23.80;35.80
67641;SHT31;54434;50.096;20.082;2023-05-29T13:21:30;23.76;36.57
67641;SHT31;54434;50.096;20.082;2023-05-29T13:24:07;23.81;36.12
67641;SHT31;54434;50.096;20.082;2023-05-29T13:26:43;23.74;35.48
67641;SHT31;54434;50.096;20.082;2023-05-29T13:29:22;23.67;35.25
67641;SHT31;54434;50.096;20.082;2023-05-29T13:31:58;23.68;35.73
67641;SHT31;54434;50.096;20.082;2023-05-29T13:34:35;23.67;36.02
67641;SHT31;54434;50.096;20.082;2023-05-29T13:37:12;23.60;36.01
67641;SHT31;54434;50.096;20.082;2023-05-29T13:39:49;23.56;36.10
67641;SHT31;54434;50.096;20.082;2023-05-29T13:42:25;23.55;36.55
67641;SHT31;54434;50.096;20.082;2023-05-29T13:45:03;23.51;36.97
67641;SHT31;54434;50.096;20.082;2023-05-29T13:47:43;23.49;37.64
67641;SHT31;54434;50.096;20.082;2023-05-29T13:50:20;23.44;37.69
67641;SHT31;54434;50.096;20.082;2023-05-29T13:52:57;23.41;37.86
67641;SHT31;54434;50.096;20.082;2023-05-29T13:55:34;23.38;38.13
67641;SHT31;54434;50.096;20.082;2023-05-29T13:58:11;23.37;38.62
67641;SHT31;54434;50.096;20.082;2023-05-29T14:00:48;23.38;39.45
67641;SHT31;54434;50.096;20.082;2023-05-29T14:03:25;23.40;38.64
67641;SHT31;54434;50.096;20.082;2023-05-29T14:06:01;23.35;38.24
67641;SHT31;54434;50.096;20.082;2023-05-29T14:08:38;23.33;38.61
67641;SHT31;54434;50.096;20.082;2023-05-29T14:11:15;23.25;38.47
67641;SHT31;54434;50.096;20.082;2023-05-29T14:13:52;23.18;38.18
67641;SHT31;54434;50.096;20.082;2023-05-29T14:16:28;23.15;38.35
67641;SHT31;54434;50.096;20.082;2023-05-29T14:19:05;23.12;38.12
67641;SHT31;54434;50.096;20.082;2023-05-29T14:21:42;23.08;37.95
67641;SHT31;54434;50.096;20.082;2023-05-29T14:24:18;23.08;38.00
67641;SHT31;54434;50.096;20.082;2023-05-29T14:26:56;23.08;38.83
67641;SHT31;54434;50.096;20.082;2023-05-29T14:29:34;23.06;38.42
67641;SHT31;54434;50.096;20.082;2023-05-29T14:32:11;23.02;38.93
67641;SHT31;54434;50.096;20.082;2023-05-29T14:34:47;23.02;39.46
67641;SHT31;54434;50.096;20.082;2023-05-29T14:37:24;23.04;39.29
67641;SHT31;54434;50.096;20.082;2023-05-29T14:40:04;22.99;38.51
67641;SHT31;54434;50.096;20.082;2023-05-29T14:42:43;22.95;38.33
67641;SHT31;54434;50.096;20.082;2023-05-29T14:45:20;22.91;38.03
67641;SHT31;54434;50.096;20.082;2023-05-29T14:47:56;22.88;37.91
67641;SHT31;54434;50.096;20.082;2023-05-29T14:50:34;22.88;38.90
67641;SHT31;54434;50.096;20.082;2023-05-29T14:53:11;22.91;38.47
67641;SHT31;54434;50.096;20.082;2023-05-29T14:55:48;22.92;38.42
67641;SHT31;54434;50.096;20.082;2023-05-29T14:58:28;22.92;37.70
67641;SHT31;54434;50.096;20.082;2023-05-29T15:01:04;22.88;37.02
67641;SHT31;54434;50.096;20.082;2023-05-29T15:03:42;22.88;37.60
67641;SHT31;54434;50.096;20.082;2023-05-29T15:06:19;22.91;37.55
67641;SHT31;54434;50.096;20.082;2023-05-29T15:08:55;22.87;36.92
67641;SHT31;54434;50.096;20.082;2023-05-29T15:11:33;22.85;37.22
67641;SHT31;54434;50.096;20.082;2023-05-29T15:14:09;22.83;36.73
67641;SHT31;54434;50.096;20.082;2023-05-29T15:16:46;22.81;36.95
67641;SHT31;54434;50.096;20.082;2023-05-29T15:19:23;22.78;37.10
67641;SHT31;54434;50.096;20.082;2023-05-29T15:22:00;22.73;37.25
67641;SHT31;54434;50.096;20.082;2023-05-29T15:24:38;22.69;37.46
67641;SHT31;54434;50.096;20.082;2023-05-29T15:27:15;22.68;37.24
67641;SHT31;54434;50.096;20.082;2023-05-29T15:29:51;22.66;37.35
67641;SHT31;54434;50.096;20.082;2023-05-29T15:32:41;22.67;37.29
67641;SHT31;54434;50.096;20.082;2023-05-29T15:35:19;22.67;37.46
67641;SHT31;54434;50.096;20.082;2023-05-29T15:37:56;22.67;38.10
67641;SHT31;54434;50.096;20.082;2023-05-29T15:40:33;22.67;38.17
67641;SHT31;54434;50.096;20.082;2023-05-29T15:43:09;22.65;37.81
67641;SHT31;54434;50.096;20.082;2023-05-29T15:45:46;22.61;38.03
67641;SHT31;54434;50.096;20.082;2023-05-29T15:48:23;22.55;38.03
67641;SHT31;54434;50.096;20.082;2023-05-29T15:50:59;22.50;37.91
67641;SHT31;54434;50.096;20.082;2023-05-29T15:53:36;22.45;37.91
67641;SHT31;54434;50.096;20.082;2023-05-29T15:56:12;22.44;37.09
67641;SHT31;54434;50.096;20.082;2023-05-29T15:58:52;22.43;36.88
67641;SHT31;54434;50.096;20.082;2023-05-29T16:01:29;22.38;37.05
67641;SHT31;54434;50.096;20.082;2023-05-29T16:04:05;22.38;37.39
67641;SHT31;54434;50.096;20.082;2023-05-29T16:06:42;22.36;36.73
67641;SHT31;54434;50.096;20.082;2023-05-29T16:09:19;22.36;36.86
67641;SHT31;54434;50.096;20.082;2023-05-29T16:11:55;22.34;37.29
67641;SHT31;54434;50.096;20.082;2023-05-29T16:14:32;22.30;37.17
67641;SHT31;54434;50.096;20.082;2023-05-29T16:17:08;22.27;37.51
67641;SHT31;54434;50.096;20.082;2023-05-29T16:19:45;22.23;37.97
67641;SHT31;54434;50.096;20.082;2023-05-29T16:22:22;22.18;37.59
67641;SHT31;54434;50.096;20.082;2023-05-29T16:25:12;22.14;37.84
67641;SHT31;54434;50.096;20.082;2023-05-29T16:27:49;22.10;37.88
67641;SHT31;54434;50.096;20.082;2023-05-29T16:30:27;22.06;38.02
67641;SHT31;54434;50.096;20.082;2023-05-29T16:33:04;22.03;38.39